Time;durP1;ratioP1;P1;durP2;ratioP2;P2;SDS_P1;SDS_P2;PMS_P1;PMS_P2;Temp;Humidity;BMP_temperature;BMP_pressure;BME280_temperature;BME280_humidity;BME280_pressure;Samples;Min_cycle;Max_cycle;Signal;HPM_P1;HPM_P2
2022/01/27 00:01:28;;;;;;;52.03;28.15;;;;;;;;;;5053816;28;20189;-64
2022/01/27 00:04:06;;;;;;;71.65;28.42;;;;;;;;;;5053532;28;20212;-64
2022/01/27 00:06:35;;;;;;;63.88;26.73;;;;;;;;;;5053424;28;20189;-65
2022/01/27 00:09:11;;;;;;;49.70;25.55;;;;;;;;;;5053810;28;20197;-65
2022/01/27 00:11:42;;;;;;;50.90;27.00;;;;;;;;;;5053359;28;20184;-65
2022/01/27 00:14:12;;;;;;;49.15;25.48;;;;;;;;;;5053290;28;20183;-66
2022/01/27 00:16:42;;;;;;;48.60;24.13;;;;;;;;;;5053363;28;20693;-65
2022/01/27 00:19:10;;;;;;;58.65;27.92;;;;;;;;;;5053535;28;20201;-65
2022/01/27 00:21:37;;;;;;;54.75;27.50;;;;;;;;;;5053710;28;20199;-64
2022/01/27 00:24:05;;;;;;;43.20;21.85;;;;;;;;;;5053493;28;20200;-65
2022/01/27 00:26:32;;;;;;;54.20;26.13;;;;;;;;;;5053039;28;20219;-65
2022/01/27 00:29:00;;;;;;;54.55;23.58;;;;;;;;;;5053059;28;20262;-65
2022/01/27 00:31:28;;;;;;;36.33;18.30;;;;;;;;;;5053456;28;20230;-65
2022/01/27 00:33:56;;;;;;;54.88;27.30;;;;;;;;;;5053405;28;20195;-65
2022/01/27 00:36:23;;;;;;;50.40;25.10;;;;;;;;;;5053692;28;20286;-65
2022/01/27 00:38:51;;;;;;;49.42;23.85;;;;;;;;;;5054184;28;20591;-66
2022/01/27 00:41:19;;;;;;;59.33;25.17;;;;;;;;;;5053836;28;20304;-66
2022/01/27 00:43:48;;;;;;;35.63;17.98;;;;;;;;;;5052973;28;20199;-65
2022/01/27 00:46:17;;;;;;;51.58;26.83;;;;;;;;;;5053095;28;20250;-66
2022/01/27 00:48:46;;;;;;;29.17;17.80;;;;;;;;;;5053254;28;20770;-66
2022/01/27 00:51:20;;;;;;;58.17;30.90;;;;;;;;;;5053478;28;20196;-67
2022/01/27 00:53:51;;;;;;;51.15;26.25;;;;;;;;;;5052966;28;20246;-66
2022/01/27 00:56:24;;;;;;;46.22;25.23;;;;;;;;;;5053297;28;20191;-66
2022/01/27 00:59:00;;;;;;;65.43;31.77;;;;;;;;;;5053591;28;20547;-66
2022/01/27 01:01:33;;;;;;;51.97;25.45;;;;;;;;;;5053319;28;20197;-66
2022/01/27 01:04:05;;;;;;;71.60;31.02;;;;;;;;;;5053274;28;20188;-67
2022/01/27 01:06:38;;;;;;;41.00;20.55;;;;;;;;;;5053357;28;20631;-67
2022/01/27 01:17:29;;;;;;;40.50;21.65;;;;;;;;;;5055504;28;20627;-66
2022/01/27 01:20:18;;;;;;;61.97;28.58;;;;;;;;;;5057351;28;20539;-67
2022/01/27 01:31:11;;;;;;;49.47;29.05;;;;;;;;;;5056468;28;20590;-67
2022/01/27 01:33:40;;;;;;;37.80;19.40;;;;;;;;;;5056694;28;20183;-66
2022/01/27 01:36:27;;;;;;;49.67;27.65;;;;;;;;;;5056464;28;20211;-67
2022/01/27 01:38:54;;;;;;;46.53;24.73;;;;;;;;;;5056776;28;20184;-68
2022/01/27 01:41:21;;;;;;;53.33;25.85;;;;;;;;;;5056470;28;20626;-66
2022/01/27 01:43:48;;;;;;;54.45;24.08;;;;;;;;;;5056725;28;20290;-66
2022/01/27 01:46:16;;;;;;;57.47;27.58;;;;;;;;;;5055789;28;20226;-66
2022/01/27 01:48:43;;;;;;;45.28;27.20;;;;;;;;;;5056567;28;20270;-67
2022/01/27 01:51:12;;;;;;;59.05;27.15;;;;;;;;;;5056310;28;20232;-66
2022/01/27 01:53:39;;;;;;;55.45;27.98;;;;;;;;;;5056168;28;20195;-66
2022/01/27 01:56:07;;;;;;;49.70;25.65;;;;;;;;;;5056520;28;20282;-66
2022/01/27 01:58:34;;;;;;;53.60;28.63;;;;;;;;;;5056075;28;20206;-67
2022/01/27 02:01:01;;;;;;;48.80;25.85;;;;;;;;;;5056063;28;20227;-65
2022/01/27 02:03:28;;;;;;;43.05;23.15;;;;;;;;;;5055966;28;20195;-66
2022/01/27 02:05:57;;;;;;;38.20;22.95;;;;;;;;;;5055518;28;20229;-65
2022/01/27 02:08:41;;;;;;;42.70;20.70;;;;;;;;;;5055550;28;20211;-66
2022/01/27 02:19:24;;;;;;;43.08;23.70;;;;;;;;;;5055546;28;20222;-67
2022/01/27 02:21:54;;;;;;;38.42;22.85;;;;;;;;;;5055873;28;20224;-67
2022/01/27 02:24:22;;;;;;;52.30;25.83;;;;;;;;;;5055621;28;20353;-66
2022/01/27 02:26:50;;;;;;;39.13;24.60;;;;;;;;;;5054713;28;20785;-67
2022/01/27 02:29:18;;;;;;;32.67;19.30;;;;;;;;;;5055500;28;20211;-66
2022/01/27 02:31:45;;;;;;;43.05;21.45;;;;;;;;;;5055170;28;20294;-67
2022/01/27 02:34:13;;;;;;;38.08;21.67;;;;;;;;;;5055834;28;20198;-67
2022/01/27 02:36:40;;;;;;;30.08;18.98;;;;;;;;;;5055382;28;20235;-68
2022/01/27 02:39:09;;;;;;;38.58;22.40;;;;;;;;;;5055057;28;20242;-67
2022/01/27 02:41:38;;;;;;;38.38;19.70;;;;;;;;;;5055320;28;20707;-67
2022/01/27 02:44:05;;;;;;;42.75;24.65;;;;;;;;;;5055275;28;20282;-66
2022/01/27 02:46:43;;;;;;;41.53;22.15;;;;;;;;;;5054781;28;20228;-66
2022/01/27 02:49:10;;;;;;;39.72;21.73;;;;;;;;;;5055912;28;20222;-66
2022/01/27 02:51:38;;;;;;;40.70;20.55;;;;;;;;;;5054745;28;20238;-66
2022/01/27 02:54:06;;;;;;;33.78;17.88;;;;;;;;;;5055425;28;20621;-67
2022/01/27 02:56:38;;;;;;;39.05;22.08;;;;;;;;;;5054664;28;20292;-67
2022/01/27 02:59:05;;;;;;;39.80;22.85;;;;;;;;;;5055046;28;20235;-67
2022/01/27 03:01:33;;;;;;;41.42;23.00;;;;;;;;;;5055269;28;20273;-67
2022/01/27 03:04:00;;;;;;;36.63;21.45;;;;;;;;;;5054576;28;20289;-67
2022/01/27 03:06:27;;;;;;;38.60;22.85;;;;;;;;;;5054711;28;20224;-66
2022/01/27 03:08:54;;;;;;;50.53;23.73;;;;;;;;;;5054965;28;20663;-66
2022/01/27 03:11:35;;;;;;;39.67;19.98;;;;;;;;;;5054398;28;20233;-66
2022/01/27 03:14:04;;;;;;;39.22;23.83;;;;;;;;;;5055151;28;20232;-66
2022/01/27 03:16:31;;;;;;;49.70;22.65;;;;;;;;;;5054630;28;20240;-67
2022/01/27 03:18:58;;;;;;;26.92;16.25;;;;;;;;;;5054852;28;20573;-66
2022/01/27 03:21:25;;;;;;;43.10;23.35;;;;;;;;;;5054596;28;20234;-66
2022/01/27 03:23:53;;;;;;;26.38;15.48;;;;;;;;;;5054512;28;20195;-65
2022/01/27 03:26:21;;;;;;;43.10;24.52;;;;;;;;;;5054404;28;20321;-68
2022/01/27 03:28:48;;;;;;;39.75;23.50;;;;;;;;;;5054062;28;20730;-66
2022/01/27 03:31:17;;;;;;;37.40;22.13;;;;;;;;;;5054334;28;20290;-66
2022/01/27 03:33:44;;;;;;;41.10;23.08;;;;;;;;;;5054064;28;20239;-66
2022/01/27 03:36:12;;;;;;;41.83;21.13;;;;;;;;;;5053873;28;20287;-66
2022/01/27 03:38:39;;;;;;;35.05;20.02;;;;;;;;;;5053440;28;20281;-67
2022/01/27 03:41:08;;;;;;;37.72;19.05;;;;;;;;;;5054162;28;20195;-65
2022/01/27 03:43:35;;;;;;;39.13;21.98;;;;;;;;;;5054217;28;20526;-66
2022/01/27 03:46:03;;;;;;;35.33;21.02;;;;;;;;;;5053712;28;20325;-66
2022/01/27 03:48:32;;;;;;;33.67;16.30;;;;;;;;;;5054078;28;20312;-66
2022/01/27 03:50:59;;;;;;;44.80;23.60;;;;;;;;;;5053641;28;20222;-65
2022/01/27 03:53:27;;;;;;;35.55;20.80;;;;;;;;;;5053995;28;20206;-65
2022/01/27 03:55:54;;;;;;;37.22;20.83;;;;;;;;;;5053515;28;20206;-65
2022/01/27 03:58:21;;;;;;;38.97;20.67;;;;;;;;;;5054370;28;20222;-66
2022/01/27 04:00:48;;;;;;;36.45;20.90;;;;;;;;;;5053516;28;20230;-65
2022/01/27 04:03:17;;;;;;;42.17;21.05;;;;;;;;;;5054040;28;20196;-65
2022/01/27 04:05:51;;;;;;;38.50;20.40;;;;;;;;;;5053804;28;20222;-66
2022/01/27 04:08:19;;;;;;;37.97;20.75;;;;;;;;;;5053428;28;20196;-66
2022/01/27 04:10:46;;;;;;;36.53;22.98;;;;;;;;;;5053680;28;20257;-66
2022/01/27 04:13:14;;;;;;;26.40;15.75;;;;;;;;;;5053579;28;20230;-65
2022/01/27 04:15:42;;;;;;;32.05;20.10;;;;;;;;;;5053616;28;20260;-66
2022/01/27 04:18:09;;;;;;;28.77;15.20;;;;;;;;;;5054110;28;20195;-65
2022/01/27 04:20:37;;;;;;;47.92;22.92;;;;;;;;;;5053272;28;20238;-65
2022/01/27 04:23:05;;;;;;;33.28;19.52;;;;;;;;;;5053169;28;20241;-66
2022/01/27 04:25:33;;;;;;;38.97;22.48;;;;;;;;;;5053080;28;20285;-65
2022/01/27 04:28:05;;;;;;;37.22;21.40;;;;;;;;;;5053838;28;20647;-66
2022/01/27 04:30:32;;;;;;;32.80;18.27;;;;;;;;;;5053822;28;20238;-65
2022/01/27 04:33:02;;;;;;;29.55;17.38;;;;;;;;;;5053429;28;20205;-66
2022/01/27 04:35:33;;;;;;;29.65;16.90;;;;;;;;;;5053432;28;20550;-66
2022/01/27 04:38:14;;;;;;;31.20;16.63;;;;;;;;;;5053256;28;20655;-66
2022/01/27 04:40:49;;;;;;;34.97;18.55;;;;;;;;;;5053502;28;20215;-66
2022/01/27 04:43:24;;;;;;;35.83;19.98;;;;;;;;;;5053132;28;20644;-66
2022/01/27 04:46:00;;;;;;;38.40;20.42;;;;;;;;;;5053320;28;20561;-66
2022/01/27 04:48:31;;;;;;;42.15;22.88;;;;;;;;;;5053827;28;20698;-65
2022/01/27 04:51:06;;;;;;;20.90;14.70;;;;;;;;;;5057721;28;20224;-66
2022/01/27 04:53:37;;;;;;;36.00;19.48;;;;;;;;;;5057092;28;20275;-65
2022/01/27 04:56:10;;;;;;;36.17;18.90;;;;;;;;;;5057657;28;20193;-66
2022/01/27 04:58:37;;;;;;;36.78;21.10;;;;;;;;;;5056952;28;20188;-66
2022/01/27 05:01:05;;;;;;;25.27;12.70;;;;;;;;;;5057218;28;20282;-66
2022/01/27 05:03:39;;;;;;;37.45;20.60;;;;;;;;;;5057085;28;20198;-66
2022/01/27 05:06:06;;;;;;;40.15;21.88;;;;;;;;;;5057044;28;20260;-66
2022/01/27 05:08:34;;;;;;;36.10;20.88;;;;;;;;;;5057387;28;20200;-66
2022/01/27 05:11:05;;;;;;;31.52;17.65;;;;;;;;;;5056990;28;20617;-66
2022/01/27 05:13:40;;;;;;;37.05;22.27;;;;;;;;;;5056714;28;20238;-65
2022/01/27 05:16:08;;;;;;;38.63;18.77;;;;;;;;;;5056664;28;20187;-66
2022/01/27 05:18:35;;;;;;;34.40;19.02;;;;;;;;;;5056362;28;20291;-66
2022/01/27 05:21:03;;;;;;;38.92;19.00;;;;;;;;;;5056810;28;20200;-66
2022/01/27 05:23:30;;;;;;;40.72;20.90;;;;;;;;;;5056717;28;20284;-66
2022/01/27 05:25:57;;;;;;;39.53;21.02;;;;;;;;;;5055571;28;20281;-65
2022/01/27 05:28:24;;;;;;;34.33;20.70;;;;;;;;;;5055901;28;20560;-66
2022/01/27 05:30:53;;;;;;;41.67;22.58;;;;;;;;;;5055426;28;20281;-66
2022/01/27 05:33:20;;;;;;;35.70;20.20;;;;;;;;;;5056589;28;20232;-65
2022/01/27 05:35:47;;;;;;;41.13;21.15;;;;;;;;;;5056458;28;20200;-65
2022/01/27 05:38:15;;;;;;;27.48;15.57;;;;;;;;;;5056698;28;20290;-66
2022/01/27 05:40:43;;;;;;;36.50;21.75;;;;;;;;;;5056104;28;20768;-66
2022/01/27 05:43:10;;;;;;;28.42;17.27;;;;;;;;;;5056318;28;20200;-65
2022/01/27 05:45:38;;;;;;;36.33;20.65;;;;;;;;;;5056260;28;20233;-66
2022/01/27 05:48:07;;;;;;;35.92;18.85;;;;;;;;;;5055873;28;20231;-66
2022/01/27 05:50:35;;;;;;;39.22;20.80;;;;;;;;;;5055913;28;20196;-66
2022/01/27 05:53:02;;;;;;;32.75;17.92;;;;;;;;;;5055795;28;20197;-66
2022/01/27 05:55:29;;;;;;;35.28;15.15;;;;;;;;;;5055793;28;20290;-66
2022/01/27 05:57:56;;;;;;;23.13;14.73;;;;;;;;;;5056114;28;20291;-66
2022/01/27 06:00:23;;;;;;;25.58;15.65;;;;;;;;;;5054713;28;20215;-65
2022/01/27 06:02:51;;;;;;;28.95;19.38;;;;;;;;;;5055640;28;20196;-65
2022/01/27 06:05:19;;;;;;;35.28;19.10;;;;;;;;;;5056232;28;20283;-65
2022/01/27 06:07:47;;;;;;;33.83;18.92;;;;;;;;;;5055485;28;20214;-66
2022/01/27 06:10:14;;;;;;;28.65;16.73;;;;;;;;;;5056505;28;20223;-66
2022/01/27 06:12:52;;;;;;;32.42;18.88;;;;;;;;;;5055420;28;20205;-66
2022/01/27 06:15:19;;;;;;;23.73;11.82;;;;;;;;;;5054906;28;20196;-66
2022/01/27 06:17:47;;;;;;;27.48;15.13;;;;;;;;;;5054895;28;20207;-66
2022/01/27 06:20:14;;;;;;;37.78;20.70;;;;;;;;;;5055076;28;20605;-66
2022/01/27 06:22:43;;;;;;;27.00;16.13;;;;;;;;;;5055598;28;20286;-64
2022/01/27 06:25:11;;;;;;;38.80;21.52;;;;;;;;;;5055384;28;20213;-64
2022/01/27 06:27:39;;;;;;;38.75;21.65;;;;;;;;;;5055427;28;20737;-63
2022/01/27 06:30:07;;;;;;;34.35;19.10;;;;;;;;;;5055146;28;20729;-65
2022/01/27 06:32:34;;;;;;;27.92;16.42;;;;;;;;;;5055967;28;20234;-64
2022/01/27 06:35:03;;;;;;;32.33;16.08;;;;;;;;;;5055248;28;20284;-64
2022/01/27 06:37:31;;;;;;;29.50;17.40;;;;;;;;;;5055324;28;20256;-63
2022/01/27 06:39:59;;;;;;;25.23;16.42;;;;;;;;;;5055294;28;20283;-64
2022/01/27 06:42:27;;;;;;;24.42;14.52;;;;;;;;;;5054852;28;20192;-64
2022/01/27 06:44:54;;;;;;;28.30;19.42;;;;;;;;;;5054834;28;20236;-64
2022/01/27 06:47:21;;;;;;;32.22;18.40;;;;;;;;;;5055109;28;20230;-64
2022/01/27 06:49:49;;;;;;;43.92;19.33;;;;;;;;;;5055772;28;20251;-64
2022/01/27 06:52:19;;;;;;;34.45;18.40;;;;;;;;;;5055051;28;20193;-64
2022/01/27 06:54:48;;;;;;;39.35;20.63;;;;;;;;;;5055466;28;20199;-65
2022/01/27 06:57:17;;;;;;;24.35;15.55;;;;;;;;;;5054568;28;20727;-65
2022/01/27 06:59:44;;;;;;;23.35;14.65;;;;;;;;;;5055049;28;20196;-64
2022/01/27 07:02:11;;;;;;;46.17;21.17;;;;;;;;;;5054438;28;20230;-64
2022/01/27 07:04:38;;;;;;;39.78;22.38;;;;;;;;;;5054820;28;20196;-65
2022/01/27 07:07:06;;;;;;;32.75;19.05;;;;;;;;;;5055262;28;20595;-63
2022/01/27 07:09:33;;;;;;;40.75;22.50;;;;;;;;;;5054384;28;20197;-64
2022/01/27 07:12:00;;;;;;;30.15;17.55;;;;;;;;;;5054550;28;20283;-63
2022/01/27 07:14:32;;;;;;;34.03;17.70;;;;;;;;;;5054421;28;20627;-64
2022/01/27 07:17:00;;;;;;;47.88;23.08;;;;;;;;;;5054891;28;20216;-63
2022/01/27 07:19:27;;;;;;;38.20;20.52;;;;;;;;;;5054824;28;20203;-62
2022/01/27 07:22:00;;;;;;;38.92;19.70;;;;;;;;;;5054065;28;20198;-63
2022/01/27 07:24:27;;;;;;;40.75;18.33;;;;;;;;;;5054783;28;20184;-63
2022/01/27 07:26:54;;;;;;;32.15;17.73;;;;;;;;;;5053989;28;20698;-63
2022/01/27 07:29:21;;;;;;;28.63;16.83;;;;;;;;;;5053959;28;20655;-63
2022/01/27 07:31:50;;;;;;;32.33;17.92;;;;;;;;;;5054184;28;20668;-63
2022/01/27 07:34:17;;;;;;;37.53;20.25;;;;;;;;;;5053892;28;20263;-64
2022/01/27 07:36:44;;;;;;;31.92;18.85;;;;;;;;;;5054521;28;20228;-64
2022/01/27 07:39:14;;;;;;;33.40;19.05;;;;;;;;;;5054604;28;20204;-63
2022/01/27 07:41:42;;;;;;;29.73;18.10;;;;;;;;;;5054262;28;20618;-63
2022/01/27 07:44:09;;;;;;;36.53;22.02;;;;;;;;;;5053718;28;20203;-63
2022/01/27 07:46:36;;;;;;;30.30;18.88;;;;;;;;;;5053511;28;20673;-64
2022/01/27 07:49:05;;;;;;;37.33;18.83;;;;;;;;;;5053764;28;20260;-64
2022/01/27 07:51:32;;;;;;;27.67;16.33;;;;;;;;;;5054229;28;20552;-63
2022/01/27 07:53:59;;;;;;;27.42;14.80;;;;;;;;;;5053799;28;20199;-63
2022/01/27 07:56:27;;;;;;;38.42;23.10;;;;;;;;;;5054238;28;20200;-63
2022/01/27 07:58:54;;;;;;;33.30;19.40;;;;;;;;;;5053726;28;20658;-63
2022/01/27 08:01:22;;;;;;;29.50;16.88;;;;;;;;;;5053399;28;20196;-64
2022/01/27 08:03:50;;;;;;;32.50;18.85;;;;;;;;;;5053294;28;20201;-63
2022/01/27 08:06:21;;;;;;;27.70;17.23;;;;;;;;;;5053801;28;20621;-63
2022/01/27 08:08:51;;;;;;;34.30;20.58;;;;;;;;;;5053283;28;20243;-63
2022/01/27 08:11:18;;;;;;;27.73;15.88;;;;;;;;;;5053544;28;20680;-62
2022/01/27 08:13:45;;;;;;;36.38;20.13;;;;;;;;;;5053235;28;20591;-62
2022/01/27 08:16:13;;;;;;;27.30;16.35;;;;;;;;;;5053761;28;20232;-62
2022/01/27 08:18:40;;;;;;;28.60;17.48;;;;;;;;;;5053183;28;20247;-62
2022/01/27 08:21:07;;;;;;;37.95;19.92;;;;;;;;;;5053120;28;20245;-62
2022/01/27 08:23:37;;;;;;;28.83;17.73;;;;;;;;;;5052679;28;20721;-62
2022/01/27 08:26:07;;;;;;;28.52;19.13;;;;;;;;;;5053801;28;20189;-63
2022/01/27 08:28:39;;;;;;;32.47;18.83;;;;;;;;;;5053649;28;20584;-63
2022/01/27 08:31:07;;;;;;;32.58;18.02;;;;;;;;;;5053762;28;20226;-62
2022/01/27 08:33:38;;;;;;;31.88;17.77;;;;;;;;;;5053676;28;20228;-62
2022/01/27 08:36:06;;;;;;;32.58;19.73;;;;;;;;;;5053789;28;20194;-62
2022/01/27 08:38:33;;;;;;;31.95;17.58;;;;;;;;;;5052993;28;20671;-63
2022/01/27 08:41:01;;;;;;;27.48;15.88;;;;;;;;;;5052924;28;20237;-62
2022/01/27 08:43:29;;;;;;;31.70;18.95;;;;;;;;;;5053005;28;20256;-63
2022/01/27 08:45:58;;;;;;;22.60;15.05;;;;;;;;;;5053638;28;20202;-62
2022/01/27 08:48:28;;;;;;;32.78;18.15;;;;;;;;;;5053679;28;20245;-62
2022/01/27 08:50:59;;;;;;;26.67;16.15;;;;;;;;;;5053050;28;20660;-62
2022/01/27 08:53:27;;;;;;;28.40;15.73;;;;;;;;;;5053523;28;20226;-63
2022/01/27 08:55:54;;;;;;;29.70;16.63;;;;;;;;;;5053081;28;20201;-63
2022/01/27 08:58:25;;;;;;;29.13;16.65;;;;;;;;;;5052742;28;20207;-63
2022/01/27 09:00:52;;;;;;;28.40;17.02;;;;;;;;;;5052876;28;20189;-64
2022/01/27 09:03:20;;;;;;;23.02;14.55;;;;;;;;;;5052745;28;20227;-63
2022/01/27 09:05:48;;;;;;;25.95;14.50;;;;;;;;;;5052663;28;20641;-62
2022/01/27 09:08:15;;;;;;;25.88;13.82;;;;;;;;;;5053091;28;20736;-64
2022/01/27 09:10:42;;;;;;;35.30;18.23;;;;;;;;;;5052667;28;20283;-63
2022/01/27 09:13:12;;;;;;;39.45;18.45;;;;;;;;;;5052617;28;20209;-63
2022/01/27 09:15:40;;;;;;;24.52;14.30;;;;;;;;;;5052191;28;20196;-63
2022/01/27 09:18:08;;;;;;;12.18;10.77;;;;;;;;;;5053210;28;20228;-63
2022/01/27 09:20:35;;;;;;;18.45;12.30;;;;;;;;;;5052650;28;20203;-64
2022/01/27 09:23:06;;;;;;;24.33;14.35;;;;;;;;;;5052889;28;20201;-63
2022/01/27 09:25:42;;;;;;;31.27;15.52;;;;;;;;;;5052957;28;20205;-64
2022/01/27 09:28:09;;;;;;;29.50;16.35;;;;;;;;;;5053615;28;20222;-63
2022/01/27 09:30:36;;;;;;;24.75;15.18;;;;;;;;;;5052450;28;20197;-63
2022/01/27 09:33:05;;;;;;;21.30;13.50;;;;;;;;;;5052779;28;20233;-63
2022/01/27 09:35:32;;;;;;;17.58;11.82;;;;;;;;;;5053551;28;20232;-63
2022/01/27 09:38:00;;;;;;;16.50;11.98;;;;;;;;;;5056135;28;20206;-63
2022/01/27 09:40:28;;;;;;;23.95;13.95;;;;;;;;;;5056428;28;20201;-63
2022/01/27 09:42:55;;;;;;;21.38;12.75;;;;;;;;;;5056299;28;20205;-63
2022/01/27 09:45:24;;;;;;;21.65;15.85;;;;;;;;;;5055970;28;20198;-64
2022/01/27 09:47:54;;;;;;;30.42;16.70;;;;;;;;;;5055722;28;20761;-63
2022/01/27 09:50:30;;;;;;;30.65;16.33;;;;;;;;;;5055931;28;20193;-64
2022/01/27 09:52:57;;;;;;;20.25;12.43;;;;;;;;;;5055948;28;20211;-64
2022/01/27 09:55:24;;;;;;;20.33;14.57;;;;;;;;;;5055694;28;20228;-64
2022/01/27 09:57:54;;;;;;;23.90;14.38;;;;;;;;;;5055924;28;20200;-63
2022/01/27 10:00:21;;;;;;;15.82;9.80;;;;;;;;;;5055991;28;20193;-63
2022/01/27 10:03:08;;;;;;;27.15;16.88;;;;;;;;;;5055599;28;20202;-64
2022/01/27 10:05:37;;;;;;;23.10;14.98;;;;;;;;;;5056208;28;20206;-64
2022/01/27 10:08:06;;;;;;;25.10;15.43;;;;;;;;;;5055790;28;20548;-63
2022/01/27 10:10:37;;;;;;;25.80;16.75;;;;;;;;;;5055695;28;20289;-63
2022/01/27 10:13:07;;;;;;;18.38;13.15;;;;;;;;;;5055416;28;20186;-63
2022/01/27 10:15:37;;;;;;;19.67;12.23;;;;;;;;;;5055481;28;20695;-63
2022/01/27 10:18:06;;;;;;;22.65;14.25;;;;;;;;;;5055606;28;20300;-63
2022/01/27 10:20:33;;;;;;;32.35;16.42;;;;;;;;;;5055582;28;20195;-63
2022/01/27 10:23:12;;;;;;;17.15;12.23;;;;;;;;;;5055950;28;20404;-63
2022/01/27 10:25:46;;;;;;;22.42;14.65;;;;;;;;;;5055789;28;20197;-64
2022/01/27 10:28:32;;;;;;;18.67;15.13;;;;;;;;;;5055552;28;20219;-64
2022/01/27 10:31:03;;;;;;;16.83;11.95;;;;;;;;;;5055739;28;20192;-63
2022/01/27 10:33:43;;;;;;;25.75;16.23;;;;;;;;;;5055096;28;20299;-64
2022/01/27 10:36:17;;;;;;;23.13;14.43;;;;;;;;;;5055447;28;20187;-64
2022/01/27 10:38:46;;;;;;;22.58;13.38;;;;;;;;;;5055251;28;20204;-64
2022/01/27 10:41:13;;;;;;;27.88;15.43;;;;;;;;;;5055302;28;20267;-64
2022/01/27 10:43:41;;;;;;;18.98;12.23;;;;;;;;;;5054877;28;20283;-64
2022/01/27 10:46:11;;;;;;;16.63;10.48;;;;;;;;;;5054886;28;20233;-64
2022/01/27 10:48:41;;;;;;;21.75;13.45;;;;;;;;;;5055484;28;20654;-64
2022/01/27 10:51:14;;;;;;;22.90;13.90;;;;;;;;;;5055582;28;20605;-65
2022/01/27 10:54:01;;;;;;;13.73;10.18;;;;;;;;;;5054785;28;20218;-64
2022/01/27 10:56:29;;;;;;;24.58;13.63;;;;;;;;;;5055878;28;20269;-64
2022/01/27 10:58:57;;;;;;;24.05;11.45;;;;;;;;;;5055143;28;20237;-63
2022/01/27 11:01:25;;;;;;;18.33;10.10;;;;;;;;;;5054778;28;20203;-64
2022/01/27 11:03:53;;;;;;;17.95;12.27;;;;;;;;;;5054441;28;20255;-64
2022/01/27 11:06:23;;;;;;;24.42;14.35;;;;;;;;;;5054487;28;20650;-64
2022/01/27 11:08:53;;;;;;;20.33;11.57;;;;;;;;;;5054731;28;20588;-63
2022/01/27 11:11:23;;;;;;;12.30;9.45;;;;;;;;;;5054356;28;20185;-64
2022/01/27 11:13:51;;;;;;;15.57;10.50;;;;;;;;;;5054638;28;20197;-64
2022/01/27 11:16:22;;;;;;;17.73;10.52;;;;;;;;;;5054428;28;20619;-64
2022/01/27 11:18:50;;;;;;;19.27;12.82;;;;;;;;;;5054955;28;20277;-64
2022/01/27 11:21:29;;;;;;;17.33;11.75;;;;;;;;;;5054163;28;20196;-64
2022/01/27 11:24:06;;;;;;;15.38;10.90;;;;;;;;;;5054189;28;20179;-64
2022/01/27 11:26:40;;;;;;;15.50;10.70;;;;;;;;;;5054718;28;20183;-64
2022/01/27 11:29:08;;;;;;;12.40;7.60;;;;;;;;;;5054598;28;20278;-64
2022/01/27 11:31:44;;;;;;;27.00;13.73;;;;;;;;;;5054240;28;20204;-63
2022/01/27 11:34:12;;;;;;;23.20;14.02;;;;;;;;;;5054004;28;20198;-64
2022/01/27 11:36:40;;;;;;;13.50;9.18;;;;;;;;;;5053942;28;20736;-63
2022/01/27 11:39:11;;;;;;;14.35;10.70;;;;;;;;;;5053820;28;20203;-64
2022/01/27 11:41:44;;;;;;;19.83;12.88;;;;;;;;;;5054598;28;20641;-64
2022/01/27 11:44:21;;;;;;;17.77;11.90;;;;;;;;;;5053973;28;20717;-64
2022/01/27 11:47:03;;;;;;;19.20;10.90;;;;;;;;;;5054019;28;20679;-64
2022/01/27 11:49:47;;;;;;;13.63;10.48;;;;;;;;;;5053064;28;20309;-63
2022/01/27 11:52:20;;;;;;;14.93;9.50;;;;;;;;;;5054294;28;20185;-64
2022/01/27 11:54:47;;;;;;;15.85;11.57;;;;;;;;;;5054118;28;20551;-63
2022/01/27 11:57:29;;;;;;;14.93;11.50;;;;;;;;;;5053601;28;20290;-64
2022/01/27 12:00:10;;;;;;;15.10;10.40;;;;;;;;;;5052813;28;20626;-63
2022/01/27 12:02:52;;;;;;;21.17;12.68;;;;;;;;;;5054308;28;20588;-64
2022/01/27 12:05:19;;;;;;;11.02;8.98;;;;;;;;;;5052761;28;20199;-64
2022/01/27 12:08:01;;;;;;;12.13;7.50;;;;;;;;;;5053475;28;20654;-64
2022/01/27 12:10:44;;;;;;;17.05;11.88;;;;;;;;;;5053026;28;20282;-65
2022/01/27 12:13:26;;;;;;;13.40;8.68;;;;;;;;;;5054207;28;20213;-63
2022/01/27 12:16:22;;;;;;;8.52;5.85;;;;;;;;;;5052628;28;20200;-65
2022/01/27 12:18:59;;;;;;;12.65;9.68;;;;;;;;;;5053271;28;20729;-64
2022/01/27 12:21:30;;;;;;;11.73;9.07;;;;;;;;;;5053540;28;20225;-64
2022/01/27 12:24:23;;;;;;;15.20;8.00;;;;;;;;;;5053439;28;20196;-64
2022/01/27 12:26:51;;;;;;;11.75;9.00;;;;;;;;;;5035154;28;20228;-64
2022/01/27 12:29:28;;;;;;;9.55;8.45;;;;;;;;;;5053069;28;20266;-63
2022/01/27 12:31:57;;;;;;;9.50;7.85;;;;;;;;;;5053075;28;20200;-63
2022/01/27 12:34:25;;;;;;;7.47;6.25;;;;;;;;;;5052986;28;20291;-64
2022/01/27 12:36:56;;;;;;;11.60;9.05;;;;;;;;;;5053002;28;20242;-64
2022/01/27 12:39:24;;;;;;;10.00;8.98;;;;;;;;;;5053292;28;20202;-64
2022/01/27 12:41:53;;;;;;;13.55;10.68;;;;;;;;;;5053006;28;20233;-64
2022/01/27 12:44:20;;;;;;;12.98;10.82;;;;;;;;;;5053295;28;20236;-64
2022/01/27 12:47:07;;;;;;;15.07;10.55;;;;;;;;;;5053350;28;20193;-64
2022/01/27 12:49:41;;;;;;;10.07;9.07;;;;;;;;;;5053501;28;20245;-64
2022/01/27 12:52:09;;;;;;;13.27;9.98;;;;;;;;;;5052939;28;20185;-64
2022/01/27 12:54:36;;;;;;;15.52;11.40;;;;;;;;;;5052821;28;20668;-69
2022/01/27 12:57:04;;;;;;;10.77;7.68;;;;;;;;;;5053207;28;20247;-69
2022/01/27 12:59:32;;;;;;;13.30;8.98;;;;;;;;;;5052916;28;20753;-64
2022/01/27 13:02:00;;;;;;;9.82;7.72;;;;;;;;;;5053093;28;20650;-64
2022/01/27 13:04:27;;;;;;;17.65;11.52;;;;;;;;;;5053675;28;20719;-65
2022/01/27 13:06:57;;;;;;;15.20;12.07;;;;;;;;;;5052958;28;20195;-65
2022/01/27 13:09:26;;;;;;;12.63;9.35;;;;;;;;;;5052727;28;20225;-65
2022/01/27 13:11:54;;;;;;;17.85;12.45;;;;;;;;;;5056684;28;20232;-64
2022/01/27 13:14:22;;;;;;;16.02;12.43;;;;;;;;;;5056951;28;20536;-64
2022/01/27 13:16:52;;;;;;;14.77;11.52;;;;;;;;;;5056703;28;20196;-66
2022/01/27 13:19:24;;;;;;;17.50;11.45;;;;;;;;;;5056947;28;20247;-65
2022/01/27 13:22:03;;;;;;;15.00;12.20;;;;;;;;;;5057122;28;20192;-65
2022/01/27 13:24:33;;;;;;;15.50;10.15;;;;;;;;;;5056554;28;20202;-64
2022/01/27 13:27:07;;;;;;;14.45;10.40;;;;;;;;;;5056671;28;20190;-64
2022/01/27 13:29:40;;;;;;;16.83;11.52;;;;;;;;;;5056512;28;20220;-65
2022/01/27 13:32:08;;;;;;;19.23;9.93;;;;;;;;;;5056770;28;20279;-65
2022/01/27 13:34:35;;;;;;;17.27;11.60;;;;;;;;;;5056173;28;20198;-65
2022/01/27 13:37:05;;;;;;;12.18;8.15;;;;;;;;;;5056132;28;20331;-65
2022/01/27 13:41:16;;;;;;;17.55;12.70;;;;;;;;;;5055925;28;20283;-65
2022/01/27 13:42:29;;;;;;;15.77;13.40;;;;;;;;;;5056316;28;20191;-65
2022/01/27 13:44:57;;;;;;;19.42;13.63;;;;;;;;;;5056052;28;20197;-66
2022/01/27 13:47:25;;;;;;;16.25;14.10;;;;;;;;;;5056204;28;20241;-65
2022/01/27 13:49:54;;;;;;;13.23;10.27;;;;;;;;;;5055940;28;20215;-65
2022/01/27 13:52:25;;;;;;;20.95;13.50;;;;;;;;;;5055836;28;20190;-66
2022/01/27 13:54:53;;;;;;;16.60;13.02;;;;;;;;;;5056507;28;20207;-65
2022/01/27 13:57:21;;;;;;;20.20;12.05;;;;;;;;;;5055777;28;20195;-64
2022/01/27 13:59:53;;;;;;;17.83;11.82;;;;;;;;;;5055756;28;20215;-64
2022/01/27 14:02:21;;;;;;;19.40;13.93;;;;;;;;;;5055875;28;20189;-64
2022/01/27 14:04:49;;;;;;;20.08;11.05;;;;;;;;;;5055920;28;20202;-65
2022/01/27 14:07:27;;;;;;;17.20;12.85;;;;;;;;;;5056449;28;20260;-64
2022/01/27 14:09:55;;;;;;;17.20;12.23;;;;;;;;;;5055320;28;20305;-64
2022/01/27 14:12:28;;;;;;;19.83;10.90;;;;;;;;;;5055434;28;20343;-64
2022/01/27 14:14:56;;;;;;;20.15;13.35;;;;;;;;;;5056087;28;20277;-64
2022/01/27 14:17:24;;;;;;;16.63;11.88;;;;;;;;;;5055312;28;20293;-64
2022/01/27 14:19:54;;;;;;;19.15;13.98;;;;;;;;;;5055537;28;20240;-65
2022/01/27 14:22:23;;;;;;;14.30;11.02;;;;;;;;;;5055432;28;20252;-66
2022/01/27 14:25:07;;;;;;;20.77;11.45;;;;;;;;;;5055668;28;20237;-65
2022/01/27 14:27:48;;;;;;;20.98;14.80;;;;;;;;;;5055148;28;20187;-65
2022/01/27 14:30:19;;;;;;;16.85;13.73;;;;;;;;;;5055824;28;20269;-65
2022/01/27 14:32:48;;;;;;;23.60;12.90;;;;;;;;;;5055993;28;20221;-64
2022/01/27 14:35:20;;;;;;;15.07;11.80;;;;;;;;;;5055428;28;20195;-65
2022/01/27 14:37:57;;;;;;;16.23;12.35;;;;;;;;;;5055830;28;20244;-65
2022/01/27 14:40:26;;;;;;;15.85;11.82;;;;;;;;;;5055312;28;20207;-64
2022/01/27 14:42:57;;;;;;;19.48;12.98;;;;;;;;;;5054932;28;20302;-64
2022/01/27 14:45:25;;;;;;;17.05;12.00;;;;;;;;;;5054526;28;20656;-65
2022/01/27 14:48:02;;;;;;;18.13;11.15;;;;;;;;;;5054834;28;20320;-65
2022/01/27 14:50:34;;;;;;;13.15;10.32;;;;;;;;;;5054942;28;20679;-66
2022/01/27 14:53:01;;;;;;;12.98;10.75;;;;;;;;;;5055111;28;20190;-65
2022/01/27 14:55:33;;;;;;;17.52;13.90;;;;;;;;;;5054734;28;20227;-65
2022/01/27 14:58:01;;;;;;;12.68;9.20;;;;;;;;;;5054676;28;20273;-65
2022/01/27 15:00:28;;;;;;;19.42;14.05;;;;;;;;;;5054865;28;20210;-65